sensor_id;sensor_type;location;lat;lon;timestamp;P1;durP1;ratioP1;P2;durP2;ratioP2
84997;SDS011;75314;48.120;11.534;2024-02-26T00:02:25;5.07;;;3.40;;
84997;SDS011;75314;48.120;11.534;2024-02-26T00:04:50;3.83;;;3.33;;
84997;SDS011;75314;48.120;11.534;2024-02-26T00:07:15;4.07;;;3.27;;
84997;SDS011;75314;48.120;11.534;2024-02-26T00:09:41;5.70;;;3.43;;
84997;SDS011;75314;48.120;11.534;2024-02-26T00:12:06;4.30;;;3.40;;
84997;SDS011;75314;48.120;11.534;2024-02-26T00:14:31;4.20;;;3.20;;
84997;SDS011;75314;48.120;11.534;2024-02-26T00:16:57;4.00;;;3.17;;
84997;SDS011;75314;48.120;11.534;2024-02-26T00:19:22;4.93;;;3.70;;
84997;SDS011;75314;48.120;11.534;2024-02-26T00:21:47;5.17;;;3.53;;
84997;SDS011;75314;48.120;11.534;2024-02-26T00:24:12;5.00;;;3.50;;
84997;SDS011;75314;48.120;11.534;2024-02-26T00:26:38;4.30;;;3.43;;
84997;SDS011;75314;48.120;11.534;2024-02-26T00:29:03;4.33;;;3.30;;
84997;SDS011;75314;48.120;11.534;2024-02-26T00:31:28;4.90;;;3.60;;
84997;SDS011;75314;48.120;11.534;2024-02-26T00:33:53;4.57;;;3.40;;
84997;SDS011;75314;48.120;11.534;2024-02-26T00:36:19;5.00;;;2.93;;
84997;SDS011;75314;48.120;11.534;2024-02-26T00:38:44;4.53;;;3.33;;
84997;SDS011;75314;48.120;11.534;2024-02-26T00:41:09;4.07;;;3.10;;
84997;SDS011;75314;48.120;11.534;2024-02-26T00:43:34;4.90;;;3.17;;
84997;SDS011;75314;48.120;11.534;2024-02-26T00:45:59;6.10;;;3.13;;
84997;SDS011;75314;48.120;11.534;2024-02-26T00:48:25;3.93;;;2.97;;
84997;SDS011;75314;48.120;11.534;2024-02-26T00:50:50;4.43;;;2.80;;
84997;SDS011;75314;48.120;11.534;2024-02-26T00:53:15;3.87;;;3.20;;
84997;SDS011;75314;48.120;11.534;2024-02-26T00:55:40;5.00;;;3.00;;
84997;SDS011;75314;48.120;11.534;2024-02-26T00:58:05;4.03;;;3.10;;
84997;SDS011;75314;48.120;11.534;2024-02-26T01:00:30;3.63;;;2.97;;
84997;SDS011;75314;48.120;11.534;2024-02-26T01:02:56;3.93;;;3.00;;
84997;SDS011;75314;48.120;11.534;2024-02-26T01:05:21;3.70;;;3.07;;
84997;SDS011;75314;48.120;11.534;2024-02-26T01:07:46;4.03;;;3.37;;
84997;SDS011;75314;48.120;11.534;2024-02-26T01:10:11;4.50;;;3.20;;
84997;SDS011;75314;48.120;11.534;2024-02-26T01:12:36;3.30;;;3.00;;
84997;SDS011;75314;48.120;11.534;2024-02-26T01:15:02;4.07;;;3.20;;
84997;SDS011;75314;48.120;11.534;2024-02-26T01:17:27;3.30;;;3.00;;
84997;SDS011;75314;48.120;11.534;2024-02-26T01:19:52;4.00;;;3.10;;
84997;SDS011;75314;48.120;11.534;2024-02-26T01:22:18;4.20;;;3.10;;
84997;SDS011;75314;48.120;11.534;2024-02-26T01:24:43;3.50;;;3.10;;
84997;SDS011;75314;48.120;11.534;2024-02-26T01:27:08;3.83;;;3.00;;
84997;SDS011;75314;48.120;11.534;2024-02-26T01:29:33;4.07;;;2.93;;
84997;SDS011;75314;48.120;11.534;2024-02-26T01:31:58;3.97;;;2.90;;
84997;SDS011;75314;48.120;11.534;2024-02-26T01:34:24;3.20;;;2.90;;
84997;SDS011;75314;48.120;11.534;2024-02-26T01:36:49;3.47;;;2.93;;
84997;SDS011;75314;48.120;11.534;2024-02-26T01:39:14;3.17;;;2.87;;
84997;SDS011;75314;48.120;11.534;2024-02-26T01:41:39;3.77;;;3.10;;
84997;SDS011;75314;48.120;11.534;2024-02-26T01:44:05;5.33;;;3.00;;
84997;SDS011;75314;48.120;11.534;2024-02-26T01:46:31;3.23;;;2.87;;
84997;SDS011;75314;48.120;11.534;2024-02-26T01:48:58;3.70;;;2.60;;
84997;SDS011;75314;48.120;11.534;2024-02-26T01:51:23;4.33;;;2.73;;
84997;SDS011;75314;48.120;11.534;2024-02-26T01:53:48;3.33;;;2.70;;
84997;SDS011;75314;48.120;11.534;2024-02-26T01:56:14;3.33;;;2.73;;
84997;SDS011;75314;48.120;11.534;2024-02-26T01:58:40;2.90;;;2.47;;
84997;SDS011;75314;48.120;11.534;2024-02-26T02:01:06;3.33;;;2.70;;
84997;SDS011;75314;48.120;11.534;2024-02-26T02:03:31;3.80;;;2.80;;
84997;SDS011;75314;48.120;11.534;2024-02-26T02:05:56;3.40;;;2.63;;
84997;SDS011;75314;48.120;11.534;2024-02-26T02:08:22;3.07;;;2.60;;
84997;SDS011;75314;48.120;11.534;2024-02-26T02:10:47;3.63;;;2.87;;
84997;SDS011;75314;48.120;11.534;2024-02-26T02:13:13;4.57;;;2.73;;
84997;SDS011;75314;48.120;11.534;2024-02-26T02:15:39;3.80;;;2.70;;
84997;SDS011;75314;48.120;11.534;2024-02-26T02:18:04;3.10;;;2.50;;
84997;SDS011;75314;48.120;11.534;2024-02-26T02:20:33;3.43;;;2.50;;
84997;SDS011;75314;48.120;11.534;2024-02-26T02:22:59;3.23;;;2.50;;
84997;SDS011;75314;48.120;11.534;2024-02-26T02:25:24;2.97;;;2.60;;
84997;SDS011;75314;48.120;11.534;2024-02-26T02:27:49;2.87;;;2.50;;
84997;SDS011;75314;48.120;11.534;2024-02-26T02:30:15;3.43;;;2.90;;
84997;SDS011;75314;48.120;11.534;2024-02-26T02:32:41;3.60;;;2.60;;
84997;SDS011;75314;48.120;11.534;2024-02-26T02:35:06;3.07;;;2.57;;
84997;SDS011;75314;48.120;11.534;2024-02-26T02:37:31;4.23;;;2.40;;
84997;SDS011;75314;48.120;11.534;2024-02-26T02:39:57;3.40;;;2.50;;
84997;SDS011;75314;48.120;11.534;2024-02-26T02:42:22;2.60;;;2.40;;
84997;SDS011;75314;48.120;11.534;2024-02-26T02:47:50;2.97;;;2.30;;
84997;SDS011;75314;48.120;11.534;2024-02-26T02:50:15;3.30;;;2.50;;
84997;SDS011;75314;48.120;11.534;2024-02-26T02:52:40;3.30;;;2.43;;
84997;SDS011;75314;48.120;11.534;2024-02-26T02:55:06;3.00;;;2.47;;
84997;SDS011;75314;48.120;11.534;2024-02-26T02:57:31;3.07;;;2.53;;
84997;SDS011;75314;48.120;11.534;2024-02-26T02:59:57;2.80;;;2.50;;
84997;SDS011;75314;48.120;11.534;2024-02-26T03:02:22;2.60;;;2.30;;
84997;SDS011;75314;48.120;11.534;2024-02-26T03:04:47;2.93;;;2.40;;
84997;SDS011;75314;48.120;11.534;2024-02-26T03:07:12;3.03;;;2.33;;
84997;SDS011;75314;48.120;11.534;2024-02-26T03:09:38;3.10;;;2.40;;
84997;SDS011;75314;48.120;11.534;2024-02-26T03:12:03;3.57;;;2.50;;
84997;SDS011;75314;48.120;11.534;2024-02-26T03:14:28;3.80;;;2.33;;
84997;SDS011;75314;48.120;11.534;2024-02-26T03:16:54;2.90;;;2.60;;
84997;SDS011;75314;48.120;11.534;2024-02-26T03:19:19;3.27;;;2.33;;
84997;SDS011;75314;48.120;11.534;2024-02-26T03:21:44;3.03;;;2.40;;
84997;SDS011;75314;48.120;11.534;2024-02-26T03:24:10;4.43;;;2.40;;
84997;SDS011;75314;48.120;11.534;2024-02-26T03:26:36;2.30;;;2.10;;
84997;SDS011;75314;48.120;11.534;2024-02-26T03:29:01;3.80;;;2.20;;
84997;SDS011;75314;48.120;11.534;2024-02-26T03:31:27;3.00;;;2.17;;
84997;SDS011;75314;48.120;11.534;2024-02-26T03:33:52;3.83;;;2.30;;
84997;SDS011;75314;48.120;11.534;2024-02-26T03:36:17;3.27;;;2.40;;
84997;SDS011;75314;48.120;11.534;2024-02-26T03:38:42;2.53;;;2.27;;
84997;SDS011;75314;48.120;11.534;2024-02-26T03:41:07;2.43;;;2.10;;
84997;SDS011;75314;48.120;11.534;2024-02-26T03:43:33;3.00;;;2.10;;
84997;SDS011;75314;48.120;11.534;2024-02-26T03:45:58;4.77;;;2.50;;
84997;SDS011;75314;48.120;11.534;2024-02-26T03:48:23;2.70;;;2.20;;
84997;SDS011;75314;48.120;11.534;2024-02-26T03:50:48;2.73;;;2.30;;
84997;SDS011;75314;48.120;11.534;2024-02-26T03:53:13;2.80;;;2.20;;
84997;SDS011;75314;48.120;11.534;2024-02-26T03:55:39;2.33;;;2.00;;
84997;SDS011;75314;48.120;11.534;2024-02-26T03:58:04;2.20;;;2.00;;
84997;SDS011;75314;48.120;11.534;2024-02-26T04:00:29;2.57;;;2.13;;
84997;SDS011;75314;48.120;11.534;2024-02-26T04:02:54;3.43;;;2.20;;
84997;SDS011;75314;48.120;11.534;2024-02-26T04:05:19;2.87;;;2.10;;
84997;SDS011;75314;48.120;11.534;2024-02-26T04:07:44;2.77;;;2.23;;
84997;SDS011;75314;48.120;11.534;2024-02-26T04:10:10;2.27;;;2.00;;
84997;SDS011;75314;48.120;11.534;2024-02-26T04:12:37;2.73;;;2.20;;
84997;SDS011;75314;48.120;11.534;2024-02-26T04:15:06;2.63;;;2.10;;
84997;SDS011;75314;48.120;11.534;2024-02-26T04:17:35;2.40;;;2.00;;
84997;SDS011;75314;48.120;11.534;2024-02-26T04:20:01;3.33;;;2.00;;
84997;SDS011;75314;48.120;11.534;2024-02-26T04:22:26;3.13;;;2.30;;
84997;SDS011;75314;48.120;11.534;2024-02-26T04:24:51;2.80;;;2.20;;
84997;SDS011;75314;48.120;11.534;2024-02-26T04:27:16;3.20;;;2.20;;
84997;SDS011;75314;48.120;11.534;2024-02-26T04:29:41;3.23;;;2.30;;
84997;SDS011;75314;48.120;11.534;2024-02-26T04:32:07;3.30;;;1.97;;
84997;SDS011;75314;48.120;11.534;2024-02-26T04:34:32;2.40;;;2.10;;
84997;SDS011;75314;48.120;11.534;2024-02-26T04:36:57;2.20;;;2.00;;
84997;SDS011;75314;48.120;11.534;2024-02-26T04:39:22;2.57;;;2.00;;
84997;SDS011;75314;48.120;11.534;2024-02-26T04:41:47;2.57;;;2.20;;
84997;SDS011;75314;48.120;11.534;2024-02-26T04:44:13;2.47;;;1.90;;
84997;SDS011;75314;48.120;11.534;2024-02-26T04:46:38;3.03;;;2.27;;
84997;SDS011;75314;48.120;11.534;2024-02-26T04:49:03;3.47;;;2.30;;
84997;SDS011;75314;48.120;11.534;2024-02-26T04:51:28;2.50;;;1.90;;
84997;SDS011;75314;48.120;11.534;2024-02-26T04:53:53;2.87;;;2.27;;
84997;SDS011;75314;48.120;11.534;2024-02-26T04:56:20;2.60;;;2.10;;
84997;SDS011;75314;48.120;11.534;2024-02-26T04:58:46;2.80;;;2.30;;
84997;SDS011;75314;48.120;11.534;2024-02-26T05:01:11;2.83;;;2.30;;
84997;SDS011;75314;48.120;11.534;2024-02-26T05:03:36;2.30;;;2.10;;
84997;SDS011;75314;48.120;11.534;2024-02-26T05:06:01;2.27;;;1.97;;
84997;SDS011;75314;48.120;11.534;2024-02-26T05:08:27;2.57;;;2.00;;
84997;SDS011;75314;48.120;11.534;2024-02-26T05:10:52;4.77;;;2.43;;
84997;SDS011;75314;48.120;11.534;2024-02-26T05:13:17;2.70;;;1.90;;
84997;SDS011;75314;48.120;11.534;2024-02-26T05:15:42;3.10;;;2.23;;
84997;SDS011;75314;48.120;11.534;2024-02-26T05:18:07;2.57;;;2.00;;
84997;SDS011;75314;48.120;11.534;2024-02-26T05:20:33;2.17;;;1.97;;
84997;SDS011;75314;48.120;11.534;2024-02-26T05:22:58;2.40;;;1.90;;
84997;SDS011;75314;48.120;11.534;2024-02-26T05:25:23;2.77;;;2.00;;
84997;SDS011;75314;48.120;11.534;2024-02-26T05:27:48;2.50;;;2.10;;
84997;SDS011;75314;48.120;11.534;2024-02-26T05:30:13;3.40;;;2.00;;
84997;SDS011;75314;48.120;11.534;2024-02-26T05:32:39;2.50;;;2.07;;
84997;SDS011;75314;48.120;11.534;2024-02-26T05:35:04;2.13;;;1.80;;
84997;SDS011;75314;48.120;11.534;2024-02-26T05:37:30;3.30;;;2.00;;
84997;SDS011;75314;48.120;11.534;2024-02-26T05:39:55;2.87;;;2.10;;
84997;SDS011;75314;48.120;11.534;2024-02-26T05:42:20;2.20;;;2.00;;
84997;SDS011;75314;48.120;11.534;2024-02-26T05:44:46;2.43;;;2.10;;
84997;SDS011;75314;48.120;11.534;2024-02-26T05:47:11;3.80;;;1.90;;
84997;SDS011;75314;48.120;11.534;2024-02-26T05:49:36;2.33;;;1.90;;
84997;SDS011;75314;48.120;11.534;2024-02-26T05:52:01;3.07;;;1.90;;
84997;SDS011;75314;48.120;11.534;2024-02-26T05:54:26;3.63;;;1.90;;
84997;SDS011;75314;48.120;11.534;2024-02-26T05:56:52;2.07;;;1.60;;
84997;SDS011;75314;48.120;11.534;2024-02-26T05:59:17;2.23;;;1.80;;
84997;SDS011;75314;48.120;11.534;2024-02-26T06:01:42;2.30;;;1.80;;
84997;SDS011;75314;48.120;11.534;2024-02-26T06:04:07;2.23;;;1.70;;
84997;SDS011;75314;48.120;11.534;2024-02-26T06:06:33;4.17;;;2.00;;
84997;SDS011;75314;48.120;11.534;2024-02-26T06:08:58;3.60;;;1.70;;
84997;SDS011;75314;48.120;11.534;2024-02-26T06:11:23;2.37;;;1.80;;
84997;SDS011;75314;48.120;11.534;2024-02-26T06:13:48;2.17;;;1.97;;
84997;SDS011;75314;48.120;11.534;2024-02-26T06:16:13;2.53;;;2.00;;
84997;SDS011;75314;48.120;11.534;2024-02-26T06:18:39;2.93;;;2.07;;
84997;SDS011;75314;48.120;11.534;2024-02-26T06:21:04;2.70;;;2.10;;
84997;SDS011;75314;48.120;11.534;2024-02-26T06:23:29;2.90;;;2.30;;
84997;SDS011;75314;48.120;11.534;2024-02-26T06:25:54;2.57;;;2.07;;
84997;SDS011;75314;48.120;11.534;2024-02-26T06:28:19;4.60;;;1.90;;
84997;SDS011;75314;48.120;11.534;2024-02-26T06:30:45;1.87;;;1.67;;
84997;SDS011;75314;48.120;11.534;2024-02-26T06:33:10;3.67;;;1.80;;
84997;SDS011;75314;48.120;11.534;2024-02-26T06:35:35;3.10;;;2.03;;
84997;SDS011;75314;48.120;11.534;2024-02-26T06:38:00;2.73;;;1.97;;
84997;SDS011;75314;48.120;11.534;2024-02-26T06:40:25;2.70;;;1.97;;
84997;SDS011;75314;48.120;11.534;2024-02-26T06:42:51;3.37;;;2.30;;
84997;SDS011;75314;48.120;11.534;2024-02-26T06:45:16;3.47;;;2.27;;
84997;SDS011;75314;48.120;11.534;2024-02-26T06:47:42;4.17;;;2.60;;
84997;SDS011;75314;48.120;11.534;2024-02-26T06:50:07;29.63;;;18.70;;
84997;SDS011;75314;48.120;11.534;2024-02-26T06:52:33;43.63;;;30.03;;
84997;SDS011;75314;48.120;11.534;2024-02-26T06:54:58;34.47;;;25.13;;
84997;SDS011;75314;48.120;11.534;2024-02-26T06:57:23;28.47;;;20.50;;
84997;SDS011;75314;48.120;11.534;2024-02-26T06:59:49;14.27;;;10.40;;
84997;SDS011;75314;48.120;11.534;2024-02-26T07:02:14;7.97;;;5.60;;
84997;SDS011;75314;48.120;11.534;2024-02-26T07:04:40;4.73;;;3.53;;
84997;SDS011;75314;48.120;11.534;2024-02-26T07:07:05;3.30;;;2.67;;
84997;SDS011;75314;48.120;11.534;2024-02-26T07:09:30;4.73;;;2.63;;
84997;SDS011;75314;48.120;11.534;2024-02-26T07:11:56;3.53;;;2.60;;
84997;SDS011;75314;48.120;11.534;2024-02-26T07:14:21;3.10;;;2.13;;
84997;SDS011;75314;48.120;11.534;2024-02-26T07:16:46;5.60;;;2.60;;
84997;SDS011;75314;48.120;11.534;2024-02-26T07:19:11;5.70;;;3.00;;
84997;SDS011;75314;48.120;11.534;2024-02-26T07:21:36;6.80;;;2.63;;
84997;SDS011;75314;48.120;11.534;2024-02-26T07:24:02;4.90;;;2.97;;
84997;SDS011;75314;48.120;11.534;2024-02-26T07:26:27;5.30;;;3.43;;
84997;SDS011;75314;48.120;11.534;2024-02-26T07:28:52;8.20;;;3.70;;
84997;SDS011;75314;48.120;11.534;2024-02-26T07:31:17;8.63;;;3.80;;
84997;SDS011;75314;48.120;11.534;2024-02-26T07:33:43;7.50;;;3.80;;
84997;SDS011;75314;48.120;11.534;2024-02-26T07:36:08;6.37;;;3.63;;
84997;SDS011;75314;48.120;11.534;2024-02-26T07:38:33;8.30;;;3.80;;
84997;SDS011;75314;48.120;11.534;2024-02-26T07:40:58;7.27;;;3.83;;
84997;SDS011;75314;48.120;11.534;2024-02-26T07:43:24;6.93;;;3.90;;
84997;SDS011;75314;48.120;11.534;2024-02-26T07:45:49;8.33;;;3.80;;
84997;SDS011;75314;48.120;11.534;2024-02-26T07:48:14;7.70;;;4.30;;
84997;SDS011;75314;48.120;11.534;2024-02-26T07:50:39;10.80;;;4.17;;
84997;SDS011;75314;48.120;11.534;2024-02-26T07:53:04;6.80;;;4.07;;
84997;SDS011;75314;48.120;11.534;2024-02-26T07:55:30;7.37;;;4.30;;
84997;SDS011;75314;48.120;11.534;2024-02-26T07:57:55;10.20;;;4.77;;
84997;SDS011;75314;48.120;11.534;2024-02-26T08:00:20;8.83;;;4.83;;
84997;SDS011;75314;48.120;11.534;2024-02-26T08:02:46;10.83;;;5.53;;
84997;SDS011;75314;48.120;11.534;2024-02-26T08:05:11;8.93;;;4.80;;
84997;SDS011;75314;48.120;11.534;2024-02-26T08:07:36;11.53;;;5.33;;
84997;SDS011;75314;48.120;11.534;2024-02-26T08:10:01;10.70;;;4.97;;
84997;SDS011;75314;48.120;11.534;2024-02-26T08:12:27;9.50;;;4.60;;
84997;SDS011;75314;48.120;11.534;2024-02-26T08:14:52;7.00;;;4.53;;
84997;SDS011;75314;48.120;11.534;2024-02-26T08:17:17;7.43;;;4.07;;
84997;SDS011;75314;48.120;11.534;2024-02-26T08:19:42;7.83;;;3.83;;
84997;SDS011;75314;48.120;11.534;2024-02-26T08:22:07;8.23;;;3.50;;
84997;SDS011;75314;48.120;11.534;2024-02-26T08:24:33;5.50;;;3.10;;
84997;SDS011;75314;48.120;11.534;2024-02-26T08:26:58;5.07;;;3.43;;
84997;SDS011;75314;48.120;11.534;2024-02-26T08:29:23;4.27;;;3.03;;
84997;SDS011;75314;48.120;11.534;2024-02-26T08:31:48;5.43;;;2.83;;
84997;SDS011;75314;48.120;11.534;2024-02-26T08:34:13;4.93;;;2.60;;
84997;SDS011;75314;48.120;11.534;2024-02-26T08:36:39;3.37;;;2.67;;
84997;SDS011;75314;48.120;11.534;2024-02-26T08:39:04;5.27;;;2.80;;
84997;SDS011;75314;48.120;11.534;2024-02-26T08:41:29;5.43;;;2.90;;
84997;SDS011;75314;48.120;11.534;2024-02-26T08:43:54;7.73;;;3.27;;
84997;SDS011;75314;48.120;11.534;2024-02-26T08:46:20;7.17;;;3.20;;
84997;SDS011;75314;48.120;11.534;2024-02-26T08:48:45;5.47;;;3.40;;
84997;SDS011;75314;48.120;11.534;2024-02-26T08:51:10;7.03;;;3.10;;
84997;SDS011;75314;48.120;11.534;2024-02-26T08:53:36;4.83;;;2.83;;
84997;SDS011;75314;48.120;11.534;2024-02-26T08:56:01;5.47;;;2.70;;
84997;SDS011;75314;48.120;11.534;2024-02-26T08:58:30;8.60;;;3.27;;
84997;SDS011;75314;48.120;11.534;2024-02-26T09:00:55;6.00;;;3.07;;
84997;SDS011;75314;48.120;11.534;2024-02-26T09:03:20;8.43;;;3.20;;
84997;SDS011;75314;48.120;11.534;2024-02-26T09:05:46;7.80;;;3.80;;
84997;SDS011;75314;48.120;11.534;2024-02-26T09:08:11;8.33;;;4.00;;
84997;SDS011;75314;48.120;11.534;2024-02-26T09:10:36;8.97;;;4.03;;
84997;SDS011;75314;48.120;11.534;2024-02-26T09:13:01;6.10;;;3.60;;
84997;SDS011;75314;48.120;11.534;2024-02-26T09:15:27;7.33;;;3.53;;
84997;SDS011;75314;48.120;11.534;2024-02-26T09:17:52;7.90;;;3.83;;
84997;SDS011;75314;48.120;11.534;2024-02-26T09:20:17;6.67;;;3.00;;
84997;SDS011;75314;48.120;11.534;2024-02-26T09:22:43;7.13;;;3.03;;
84997;SDS011;75314;48.120;11.534;2024-02-26T09:25:08;2.80;;;2.30;;
84997;SDS011;75314;48.120;11.534;2024-02-26T09:27:33;6.47;;;2.50;;
84997;SDS011;75314;48.120;11.534;2024-02-26T09:29:58;4.53;;;2.47;;
84997;SDS011;75314;48.120;11.534;2024-02-26T09:32:23;4.93;;;2.80;;
84997;SDS011;75314;48.120;11.534;2024-02-26T09:34:49;4.37;;;2.53;;
84997;SDS011;75314;48.120;11.534;2024-02-26T09:37:14;3.93;;;2.70;;
84997;SDS011;75314;48.120;11.534;2024-02-26T09:39:39;7.53;;;2.70;;
84997;SDS011;75314;48.120;11.534;2024-02-26T09:42:04;7.53;;;2.90;;
84997;SDS011;75314;48.120;11.534;2024-02-26T09:44:30;5.80;;;2.87;;
84997;SDS011;75314;48.120;11.534;2024-02-26T09:46:56;14.17;;;3.13;;
84997;SDS011;75314;48.120;11.534;2024-02-26T09:49:21;4.13;;;2.80;;
84997;SDS011;75314;48.120;11.534;2024-02-26T09:51:49;8.03;;;2.87;;
84997;SDS011;75314;48.120;11.534;2024-02-26T09:54:14;6.33;;;2.50;;
84997;SDS011;75314;48.120;11.534;2024-02-26T09:56:40;7.40;;;2.50;;
84997;SDS011;75314;48.120;11.534;2024-02-26T09:59:06;4.83;;;2.50;;
84997;SDS011;75314;48.120;11.534;2024-02-26T10:01:35;4.97;;;2.40;;
84997;SDS011;75314;48.120;11.534;2024-02-26T10:04:01;3.73;;;2.27;;
84997;SDS011;75314;48.120;11.534;2024-02-26T10:06:27;6.93;;;3.53;;
84997;SDS011;75314;48.120;11.534;2024-02-26T10:08:52;3.40;;;2.57;;
84997;SDS011;75314;48.120;11.534;2024-02-26T10:11:18;8.00;;;2.60;;
84997;SDS011;75314;48.120;11.534;2024-02-26T10:13:43;7.83;;;2.50;;
84997;SDS011;75314;48.120;11.534;2024-02-26T10:16:08;5.60;;;2.60;;
84997;SDS011;75314;48.120;11.534;2024-02-26T10:18:49;3.90;;;2.87;;
84997;SDS011;75314;48.120;11.534;2024-02-26T10:21:18;5.33;;;2.87;;
84997;SDS011;75314;48.120;11.534;2024-02-26T10:23:46;4.30;;;2.47;;
84997;SDS011;75314;48.120;11.534;2024-02-26T10:26:12;3.40;;;2.47;;
84997;SDS011;75314;48.120;11.534;2024-02-26T10:28:38;4.30;;;2.20;;
84997;SDS011;75314;48.120;11.534;2024-02-26T10:31:08;3.73;;;2.20;;
84997;SDS011;75314;48.120;11.534;2024-02-26T10:33:34;4.47;;;2.50;;
84997;SDS011;75314;48.120;11.534;2024-02-26T10:35:59;5.67;;;2.23;;
84997;SDS011;75314;48.120;11.534;2024-02-26T10:38:25;4.73;;;2.10;;
84997;SDS011;75314;48.120;11.534;2024-02-26T10:40:50;2.77;;;2.10;;
84997;SDS011;75314;48.120;11.534;2024-02-26T10:43:15;2.63;;;2.07;;
84997;SDS011;75314;48.120;11.534;2024-02-26T10:45:40;4.00;;;1.93;;
84997;SDS011;75314;48.120;11.534;2024-02-26T10:48:09;4.73;;;2.20;;
84997;SDS011;75314;48.120;11.534;2024-02-26T10:50:34;3.67;;;1.93;;
84997;SDS011;75314;48.120;11.534;2024-02-26T10:53:00;5.23;;;1.90;;
84997;SDS011;75314;48.120;11.534;2024-02-26T10:55:25;3.77;;;1.93;;
84997;SDS011;75314;48.120;11.534;2024-02-26T10:57:51;2.77;;;1.70;;
84997;SDS011;75314;48.120;11.534;2024-02-26T11:00:17;4.90;;;2.03;;
84997;SDS011;75314;48.120;11.534;2024-02-26T11:02:44;3.50;;;1.90;;
84997;SDS011;75314;48.120;11.534;2024-02-26T11:05:10;4.17;;;1.67;;
84997;SDS011;75314;48.120;11.534;2024-02-26T11:07:36;3.90;;;2.03;;
84997;SDS011;75314;48.120;11.534;2024-02-26T11:10:02;3.77;;;2.20;;
84997;SDS011;75314;48.120;11.534;2024-02-26T11:12:31;2.13;;;1.77;;
84997;SDS011;75314;48.120;11.534;2024-02-26T11:14:57;3.13;;;1.97;;
84997;SDS011;75314;48.120;11.534;2024-02-26T11:17:23;4.67;;;1.77;;
84997;SDS011;75314;48.120;11.534;2024-02-26T11:19:51;2.13;;;1.73;;
84997;SDS011;75314;48.120;11.534;2024-02-26T11:22:19;4.10;;;1.93;;
84997;SDS011;75314;48.120;11.534;2024-02-26T11:24:44;3.80;;;1.97;;
84997;SDS011;75314;48.120;11.534;2024-02-26T11:27:10;2.87;;;2.00;;
84997;SDS011;75314;48.120;11.534;2024-02-26T11:29:43;2.83;;;1.70;;
84997;SDS011;75314;48.120;11.534;2024-02-26T11:32:11;2.67;;;1.57;;
84997;SDS011;75314;48.120;11.534;2024-02-26T11:34:37;2.40;;;1.60;;
84997;SDS011;75314;48.120;11.534;2024-02-26T11:37:16;4.27;;;1.73;;
84997;SDS011;75314;48.120;11.534;2024-02-26T11:39:42;1.40;;;1.20;;
84997;SDS011;75314;48.120;11.534;2024-02-26T11:42:08;1.70;;;1.40;;
84997;SDS011;75314;48.120;11.534;2024-02-26T11:44:33;1.83;;;1.30;;
84997;SDS011;75314;48.120;11.534;2024-02-26T11:46:59;2.20;;;1.40;;
84997;SDS011;75314;48.120;11.534;2024-02-26T11:49:35;1.77;;;1.40;;
84997;SDS011;75314;48.120;11.534;2024-02-26T11:52:00;1.90;;;1.27;;
84997;SDS011;75314;48.120;11.534;2024-02-26T11:57:48;1.70;;;1.20;;
84997;SDS011;75314;48.120;11.534;2024-02-26T12:02:47;2.10;;;1.77;;
84997;SDS011;75314;48.120;11.534;2024-02-26T12:05:14;1.53;;;1.20;;
84997;SDS011;75314;48.120;11.534;2024-02-26T12:07:42;3.23;;;1.60;;
84997;SDS011;75314;48.120;11.534;2024-02-26T12:10:15;2.00;;;1.50;;
84997;SDS011;75314;48.120;11.534;2024-02-26T12:12:47;1.97;;;1.20;;
84997;SDS011;75314;48.120;11.534;2024-02-26T12:15:12;1.63;;;1.37;;
84997;SDS011;75314;48.120;11.534;2024-02-26T12:17:40;1.63;;;1.10;;
84997;SDS011;75314;48.120;11.534;2024-02-26T12:20:09;2.60;;;1.10;;
84997;SDS011;75314;48.120;11.534;2024-02-26T12:22:35;1.47;;;1.07;;
84997;SDS011;75314;48.120;11.534;2024-02-26T12:25:00;2.00;;;1.30;;
84997;SDS011;75314;48.120;11.534;2024-02-26T12:27:25;1.93;;;1.63;;
84997;SDS011;75314;48.120;11.534;2024-02-26T12:29:50;2.03;;;1.63;;
84997;SDS011;75314;48.120;11.534;2024-02-26T12:32:18;3.07;;;1.40;;
84997;SDS011;75314;48.120;11.534;2024-02-26T12:34:43;2.33;;;1.80;;
84997;SDS011;75314;48.120;11.534;2024-02-26T12:37:08;1.90;;;1.60;;
84997;SDS011;75314;48.120;11.534;2024-02-26T12:39:34;2.10;;;1.50;;
84997;SDS011;75314;48.120;11.534;2024-02-26T12:41:59;2.03;;;1.40;;
84997;SDS011;75314;48.120;11.534;2024-02-26T12:44:24;1.87;;;1.47;;
84997;SDS011;75314;48.120;11.534;2024-02-26T12:46:50;2.00;;;1.20;;
84997;SDS011;75314;48.120;11.534;2024-02-26T12:49:15;1.63;;;1.23;;
84997;SDS011;75314;48.120;11.534;2024-02-26T12:51:40;2.70;;;1.30;;
84997;SDS011;75314;48.120;11.534;2024-02-26T12:54:06;1.50;;;1.20;;
84997;SDS011;75314;48.120;11.534;2024-02-26T12:56:32;1.70;;;1.40;;
84997;SDS011;75314;48.120;11.534;2024-02-26T12:58:57;1.97;;;1.70;;
84997;SDS011;75314;48.120;11.534;2024-02-26T13:01:23;4.13;;;1.37;;
84997;SDS011;75314;48.120;11.534;2024-02-26T13:03:50;2.03;;;1.30;;
84997;SDS011;75314;48.120;11.534;2024-02-26T13:06:17;2.43;;;1.20;;
84997;SDS011;75314;48.120;11.534;2024-02-26T13:08:42;1.47;;;1.20;;
84997;SDS011;75314;48.120;11.534;2024-02-26T13:11:07;3.10;;;1.10;;
84997;SDS011;75314;48.120;11.534;2024-02-26T13:13:33;3.40;;;1.47;;
84997;SDS011;75314;48.120;11.534;2024-02-26T13:16:01;2.17;;;1.50;;
84997;SDS011;75314;48.120;11.534;2024-02-26T13:18:30;1.87;;;1.40;;
84997;SDS011;75314;48.120;11.534;2024-02-26T13:23:32;2.10;;;1.60;;
84997;SDS011;75314;48.120;11.534;2024-02-26T13:25:57;2.20;;;1.80;;
84997;SDS011;75314;48.120;11.534;2024-02-26T13:28:22;2.33;;;1.80;;
84997;SDS011;75314;48.120;11.534;2024-02-26T13:30:54;4.20;;;3.30;;
84997;SDS011;75314;48.120;11.534;2024-02-26T13:33:19;3.00;;;1.53;;
84997;SDS011;75314;48.120;11.534;2024-02-26T13:35:46;2.20;;;1.40;;
84997;SDS011;75314;48.120;11.534;2024-02-26T13:38:12;2.13;;;1.80;;
84997;SDS011;75314;48.120;11.534;2024-02-26T13:40:37;1.87;;;1.40;;
84997;SDS011;75314;48.120;11.534;2024-02-26T13:43:02;4.83;;;1.70;;
84997;SDS011;75314;48.120;11.534;2024-02-26T13:45:28;3.07;;;2.00;;
84997;SDS011;75314;48.120;11.534;2024-02-26T13:47:53;2.97;;;1.80;;
84997;SDS011;75314;48.120;11.534;2024-02-26T13:50:19;3.07;;;1.57;;
84997;SDS011;75314;48.120;11.534;2024-02-26T13:52:44;2.20;;;1.53;;
84997;SDS011;75314;48.120;11.534;2024-02-26T13:55:09;3.60;;;1.70;;
84997;SDS011;75314;48.120;11.534;2024-02-26T13:57:34;2.90;;;2.00;;
84997;SDS011;75314;48.120;11.534;2024-02-26T13:59:59;3.37;;;1.70;;
84997;SDS011;75314;48.120;11.534;2024-02-26T14:02:25;2.77;;;1.60;;
84997;SDS011;75314;48.120;11.534;2024-02-26T14:04:50;2.23;;;1.50;;
84997;SDS011;75314;48.120;11.534;2024-02-26T14:07:15;3.70;;;1.60;;
84997;SDS011;75314;48.120;11.534;2024-02-26T14:09:40;3.20;;;1.63;;
84997;SDS011;75314;48.120;11.534;2024-02-26T14:12:05;2.80;;;1.17;;
84997;SDS011;75314;48.120;11.534;2024-02-26T14:14:31;3.37;;;1.30;;
84997;SDS011;75314;48.120;11.534;2024-02-26T14:16:56;2.00;;;1.10;;
84997;SDS011;75314;48.120;11.534;2024-02-26T14:19:21;2.30;;;1.70;;
84997;SDS011;75314;48.120;11.534;2024-02-26T14:21:46;2.20;;;1.50;;
84997;SDS011;75314;48.120;11.534;2024-02-26T14:24:12;3.23;;;1.30;;
84997;SDS011;75314;48.120;11.534;2024-02-26T14:26:37;2.20;;;1.37;;
84997;SDS011;75314;48.120;11.534;2024-02-26T14:29:02;3.03;;;1.40;;
84997;SDS011;75314;48.120;11.534;2024-02-26T14:31:27;1.83;;;1.53;;
84997;SDS011;75314;48.120;11.534;2024-02-26T14:33:52;2.23;;;1.57;;
84997;SDS011;75314;48.120;11.534;2024-02-26T14:36:18;4.23;;;1.67;;